»·PEaware :: N79429 KSMX-KBFL

N79429 :: KSMX-KBFL

FLIGHT INFORMATION

Flight Status: Arrived
Operator: Privately registered:
United States
More flights under this callsign
Pilot: Nick K. (20390)
Aircraft: CESSNA 172 SKYHAWK
(C172)
More flights by this aircraft type
Origin: KSMX Santa Maria Pub/Capt Hancock
United States
Destination: KBFL Meadows
United States
More flights between these airports :: More routes between these airports
Route: +
File this flight plan on PilotEdge
Remarks:
Altitude:
(Current/Filed)
0ft
Speed:
(Current/Filed)
0kts
Departed: 06-Feb-19 09:18 AM
Arrived: 06-Feb-19 10:09 AM
Distance/Time
Traveled:
76nm/0:51
Distance/Time
To Go:
Arrived

Flight Plot

Page will automatically refresh every two minutes.


Map Options




Map Legend


Flown Route
Filed Route
Departure Airport
Arrival Airport
Navaid (VOR, NDB)
Fix

Horizontal Profiles

Position Reports

Time Latitude Longitude Heading Altitude Ground
Speed
06-Feb-19 09:07 34.901756 -120.452486 228 265ft 0kts
06-Feb-19 09:08 34.901756 -120.452486 228 265ft 0kts
06-Feb-19 09:09 34.901756 -120.452486 228 265ft 0kts
06-Feb-19 09:10 34.901093 -120.453237 178 265ft 10kts
06-Feb-19 09:11 34.898575 -120.450295 131 265ft 5kts
06-Feb-19 09:12 34.895711 -120.446860 145 265ft 18kts
06-Feb-19 09:14 34.894817 -120.445798 140 265ft 0kts
06-Feb-19 09:15 34.894072 -120.444810 185 265ft 6kts
06-Feb-19 09:16 34.893394 -120.445212 181 265ft 0kts
06-Feb-19 09:17 34.893165 -120.446306 315 265ft 27kts
06-Feb-19 09:18 34.908229 -120.462242 324 984ft 74kts
06-Feb-19 09:19 34.927552 -120.470458 22 1824ft 80kts
06-Feb-19 09:20 34.934682 -120.447491 97 2684ft 75kts
06-Feb-19 09:21 34.933378 -120.420818 92 3428ft 81kts
06-Feb-19 09:22 34.931709 -120.393634 89 4169ft 81kts
06-Feb-19 09:23 34.934737 -120.366280 75 4857ft 82kts
06-Feb-19 09:24 34.941319 -120.339633 68 5515ft 82kts
06-Feb-19 09:25 34.951350 -120.314320 58 6126ft 84kts
06-Feb-19 09:26 34.962727 -120.289208 53 6678ft 88kts
06-Feb-19 09:27 34.975422 -120.265078 71 7283ft 82kts
06-Feb-19 09:27 34.981252 -120.241527 74 7567ft 94kts
06-Feb-19 09:29 34.990321 -120.199863 74 7499ft 114kts
06-Feb-19 09:30 35.001161 -120.164069 64 7506ft 112kts
06-Feb-19 09:31 35.017886 -120.132037 52 7498ft 112kts
06-Feb-19 09:31 35.032179 -120.105446 63 7496ft 111kts
06-Feb-19 09:32 35.044456 -120.070369 66 7485ft 112kts
06-Feb-19 09:34 35.061030 -120.030815 68 7479ft 112kts
06-Feb-19 09:35 35.068315 -119.993737 67 7467ft 112kts
06-Feb-19 09:35 35.077026 -119.963790 60 7452ft 112kts
06-Feb-19 09:36 35.094451 -119.931223 53 7369ft 116kts
06-Feb-19 09:37 35.110605 -119.897210 65 7308ft 116kts
06-Feb-19 09:38 35.122675 -119.860879 68 7268ft 114kts
06-Feb-19 09:39 35.135239 -119.824858 67 7222ft 115kts
06-Feb-19 09:40 35.147326 -119.788709 64 7181ft 115kts
06-Feb-19 09:41 35.159089 -119.753126 64 7238ft 112kts
06-Feb-19 09:42 35.172187 -119.718470 68 7263ft 112kts
06-Feb-19 09:43 35.185481 -119.683202 66 7285ft 114kts
06-Feb-19 09:44 35.197503 -119.646595 68 7311ft 116kts
06-Feb-19 09:45 35.208773 -119.609685 70 7351ft 116kts
06-Feb-19 09:46 35.221074 -119.572931 60 7306ft 122kts
06-Feb-19 09:47 35.234782 -119.535969 70 7278ft 103kts
06-Feb-19 09:48 35.242153 -119.505264 81 6945ft 92kts
06-Feb-19 09:49 35.249585 -119.475560 62 6578ft 92kts
06-Feb-19 09:50 35.260438 -119.447483 54 6234ft 90kts
06-Feb-19 09:51 35.272849 -119.420547 60 5892ft 90kts
06-Feb-19 09:52 35.285634 -119.393986 63 5557ft 90kts
06-Feb-19 09:53 35.294385 -119.363821 71 5147ft 92kts
06-Feb-19 09:55 35.309196 -119.331653 48 4678ft 94kts
06-Feb-19 09:55 35.322560 -119.310343 48 4361ft 94kts
06-Feb-19 09:56 35.339130 -119.285314 56 3995ft 94kts
06-Feb-19 09:57 35.353134 -119.257089 62 3548ft 100kts
06-Feb-19 09:58 35.366968 -119.227152 61 3089ft 101kts
06-Feb-19 09:59 35.379906 -119.197248 58 2751ft 91kts
06-Feb-19 10:00 35.391888 -119.167392 76 2277ft 100kts
06-Feb-19 10:01 35.401190 -119.136035 70 1948ft 93kts
06-Feb-19 10:02 35.416537 -119.112109 31 1672ft 91kts
06-Feb-19 10:03 35.436440 -119.094321 77 1392ft 90kts
06-Feb-19 10:04 35.424053 -119.069443 140 1216ft 91kts
06-Feb-19 10:05 35.406288 -119.052216 106 943ft 74kts
06-Feb-19 10:06 35.414297 -119.036746 3 690ft 52kts
06-Feb-19 10:07 35.426128 -119.046841 314 510ft 41kts
06-Feb-19 10:08 35.429049 -119.049560 41 510ft 0kts
06-Feb-19 10:09 35.429080 -119.049526 41 510ft 3kts
06-Feb-19 10:10 35.430565 -119.049683 39 510ft 12kts
06-Feb-19 10:19 35.425278 -119.045821 315 510ft 0kts
06-Feb-19 10:20 35.435703 -119.052043 180 510ft 0kts
06-Feb-19 10:21 35.435703 -119.052043 179 510ft 0kts
06-Feb-19 10:22 35.435703 -119.052043 179 510ft 0kts

Navigation Log

Ident Type
Flight plan parsing failed, navigation log unavailable